Aérodrome :
LOGIN :

S'inscrire | Disclaimer

   EN    FR    IT 

 










Légende :    VFR   VFR Marginal   IFR   IFR Intensif   IFR Très Intensif
Visi : 
Plafond : 
>= 8 km
>= 3000ft
5 à 8 km
1000 à 3000 ft
1500m à 5 km
500 à 1000 ft
800 à 1500m
200 à 500 ft
< 800m
< 200 ft
Symboles :   Orages  Brouillard  Fortes neiges  Fortes précipitations  Vent > 20 kt
SIGMETs :   Divers  Orages  Givrage  Turbulence  Onde Orograph.  Cendres Volcan.







- Altitude de l'aérodrome : 1470 ft
- Code IATA : KLU


LOWK - Klagenfurt

DERNIER METAR :
  • 171620Z 04002KT 9999 FEW055 BKN250 M02/M05 Q1024 NOSIG

METARs EXPIRÉS :
  • 171550Z 05002KT 9999 FEW055 BKN250 M02/M05 Q1024 NOSIG
  • 171520Z 04002KT 9999 FEW055 BKN250 M01/M05 Q1023 NOSIG
  • 171450Z VRB01KT 9999 FEW060 BKN250 00/M05 Q1023 NOSIG
  • 171420Z VRB01KT 9999 FEW060 BKN250 00/M05 Q1023 NOSIG
  • 171350Z VRB01KT 9999 FEW060 BKN250 00/M05 Q1022 NOSIG

TAF TAF LOWK
Valide du 17 à 12h jusqu'au 18 à 12h UTC


171115Z 1712/1812 VRB02KT 9999 FEW040 BKN250 TXM01/1713Z TNM06/1805Z
TEMPO 1720/1808 3000 MIFG BR SCT006
PROB30
TEMPO 1802/1806 0200 FZFG VV001
Pas de NOTAMs connus pour ce terrain.



MET'MAP, la Météo Aéronautique d'un coup d'oeil ! - Copyright ORBIFLY Décembre 2007 - Disclaimer

ORBIFLY MET'MAP TEAM :

Programmation & Développement : Alexandra Zaïnal
Conception & Développement : Baudouin d'Aumeries
Co-Programmation & Développement : Marc-Olivier Méhu
Soutien technique & logistique : Manuel Goepfert

Contact : metmap@orbifly.com




SOURCES & CREDITS :

   NOAA